Time;durP1;ratioP1;P1;durP2;ratioP2;P2;SDS_P1;SDS_P2;PMS_P1;PMS_P2;Temp;Humidity;BMP_temperature;BMP_pressure;BME280_temperature;BME280_humidity;BME280_pressure;Samples;Min_cycle;Max_cycle;Signal;HPM_P1;HPM_P2
2022/06/27 00:01:55;;;;;;;2.70;2.50;;;;;;;;;;5028041;28;20992;-76
2022/06/27 00:04:22;;;;;;;3.73;3.20;;;;;;;;;;5024403;28;20485;-77
2022/06/27 00:06:49;;;;;;;4.53;4.07;;;;;;;;;;5027227;28;20954;-76
2022/06/27 00:09:16;;;;;;;3.70;3.27;;;;;;;;;;5031381;28;20496;-77
2022/06/27 00:11:45;;;;;;;3.80;3.43;;;;;;;;;;5029397;28;20462;-76
2022/06/27 00:14:12;;;;;;;3.30;2.80;;;;;;;;;;5032193;28;20462;-78
2022/06/27 00:16:39;;;;;;;3.70;3.40;;;;;;;;;;5024809;28;20450;-76
2022/06/27 00:19:06;;;;;;;4.00;3.07;;;;;;;;;;5026051;28;20462;-78
2022/06/27 00:21:33;;;;;;;4.73;4.33;;;;;;;;;;5023022;28;20461;-76
2022/06/27 00:24:00;;;;;;;4.13;3.83;;;;;;;;;;5028432;28;20447;-78
2022/06/27 00:26:27;;;;;;;3.93;3.63;;;;;;;;;;5025410;28;20486;-78
2022/06/27 00:28:55;;;;;;;3.40;3.10;;;;;;;;;;5031666;28;20457;-79
2022/06/27 00:31:22;;;;;;;3.40;3.10;;;;;;;;;;5026331;28;20577;-78
2022/06/27 00:33:50;;;;;;;2.80;2.60;;;;;;;;;;5029742;28;20449;-78
2022/06/27 00:36:17;;;;;;;4.07;3.77;;;;;;;;;;5030231;28;20456;-77
2022/06/27 00:38:44;;;;;;;3.50;2.53;;;;;;;;;;5031172;28;20484;-76
2022/06/27 00:41:11;;;;;;;3.80;3.50;;;;;;;;;;5028397;28;20477;-78
2022/06/27 00:43:38;;;;;;;4.90;3.60;;;;;;;;;;5027029;28;20555;-76
2022/06/27 00:46:06;;;;;;;3.53;3.30;;;;;;;;;;5020173;28;20490;-79
2022/06/27 00:48:33;;;;;;;3.53;3.23;;;;;;;;;;5028513;28;20453;-77
2022/06/27 00:51:00;;;;;;;4.47;3.50;;;;;;;;;;5028975;28;20951;-78
2022/06/27 00:53:28;;;;;;;3.57;3.20;;;;;;;;;;5026911;28;20473;-77
2022/06/27 00:55:56;;;;;;;3.50;3.30;;;;;;;;;;5020230;28;20465;-77
2022/06/27 00:58:23;;;;;;;4.00;3.70;;;;;;;;;;5032379;28;20199;-77
2022/06/27 01:00:50;;;;;;;3.23;2.93;;;;;;;;;;5022918;28;20203;-76
2022/06/27 01:03:18;;;;;;;3.37;2.90;;;;;;;;;;5021897;28;20872;-76
2022/06/27 01:05:52;;;;;;;2.88;2.58;;;;;;;;;;5029511;28;20988;-77
2022/06/27 01:08:19;;;;;;;3.30;3.10;;;;;;;;;;5031306;28;20250;-77
2022/06/27 01:10:46;;;;;;;3.03;2.83;;;;;;;;;;5030133;28;20642;-78
2022/06/27 01:13:14;;;;;;;3.40;3.20;;;;;;;;;;5027209;28;20237;-77
2022/06/27 01:15:41;;;;;;;3.50;3.20;;;;;;;;;;5028810;28;20456;-77
2022/06/27 01:18:09;;;;;;;6.60;2.70;;;;;;;;;;5023812;28;20222;-78
2022/06/27 01:20:37;;;;;;;3.30;3.00;;;;;;;;;;5032049;28;20439;-76
2022/06/27 01:23:06;;;;;;;3.28;2.72;;;;;;;;;;5015829;28;20205;-78
2022/06/27 01:25:33;;;;;;;3.45;2.90;;;;;;;;;;5022934;28;20271;-77
2022/06/27 01:28:00;;;;;;;3.42;3.20;;;;;;;;;;5030101;28;20207;-77
2022/06/27 01:30:28;;;;;;;4.00;3.70;;;;;;;;;;5026934;28;20250;-77
2022/06/27 01:32:55;;;;;;;2.92;2.65;;;;;;;;;;5026525;28;20202;-76
2022/06/27 01:35:22;;;;;;;2.70;2.50;;;;;;;;;;5029398;28;20210;-76
2022/06/27 01:37:49;;;;;;;2.97;2.78;;;;;;;;;;5030128;28;20206;-77
2022/06/27 01:40:17;;;;;;;3.00;2.47;;;;;;;;;;5029025;28;20205;-76
2022/06/27 01:42:44;;;;;;;3.15;2.95;;;;;;;;;;5026891;28;20205;-76
2022/06/27 01:45:12;;;;;;;3.47;2.35;;;;;;;;;;5022196;28;20219;-79
2022/06/27 01:47:39;;;;;;;2.53;2.27;;;;;;;;;;5028573;28;20699;-76
2022/06/27 01:50:07;;;;;;;2.60;2.40;;;;;;;;;;5029127;28;20456;-76
2022/06/27 01:52:34;;;;;;;3.30;3.00;;;;;;;;;;5027635;28;20456;-78
2022/06/27 01:55:01;;;;;;;3.05;2.75;;;;;;;;;;5026964;28;20200;-76
2022/06/27 01:57:30;;;;;;;2.55;2.35;;;;;;;;;;5030252;28;20195;-77
2022/06/27 01:59:57;;;;;;;3.83;3.47;;;;;;;;;;5027084;28;20627;-76
2022/06/27 02:02:24;;;;;;;4.10;2.90;;;;;;;;;;5018250;28;20232;-76
2022/06/27 02:04:52;;;;;;;2.92;2.67;;;;;;;;;;5027350;28;20593;-76
2022/06/27 02:07:20;;;;;;;3.15;2.95;;;;;;;;;;5028750;28;20205;-76
2022/06/27 02:09:47;;;;;;;4.72;2.80;;;;;;;;;;5028822;28;20242;-79
2022/06/27 02:12:21;;;;;;;3.00;2.80;;;;;;;;;;5026053;28;20206;-78
2022/06/27 02:14:50;;;;;;;3.47;2.60;;;;;;;;;;5029038;28;20423;-77
2022/06/27 02:17:18;;;;;;;3.28;2.90;;;;;;;;;;5025822;28;20460;-77
2022/06/27 02:19:45;;;;;;;2.47;2.28;;;;;;;;;;5020329;28;20203;-76
2022/06/27 02:22:13;;;;;;;3.75;3.45;;;;;;;;;;5027786;28;20208;-78
2022/06/27 02:24:40;;;;;;;2.30;2.10;;;;;;;;;;5031796;28;20648;-77
2022/06/27 02:27:08;;;;;;;2.80;2.60;;;;;;;;;;5032490;28;20227;-77
2022/06/27 02:29:35;;;;;;;3.58;2.58;;;;;;;;;;5025732;28;20244;-78
2022/06/27 02:32:04;;;;;;;4.13;2.30;;;;;;;;;;5027201;28;20203;-80
2022/06/27 02:34:31;;;;;;;2.72;2.53;;;;;;;;;;5034379;28;20452;-76
2022/06/27 02:36:58;;;;;;;2.83;2.63;;;;;;;;;;5019923;28;20198;-77
2022/06/27 02:39:26;;;;;;;3.13;2.83;;;;;;;;;;5030255;28;20197;-77
2022/06/27 02:41:54;;;;;;;3.05;2.85;;;;;;;;;;5032481;28;20200;-76
2022/06/27 02:44:22;;;;;;;2.40;2.20;;;;;;;;;;5033839;28;20234;-80
2022/06/27 02:46:50;;;;;;;3.83;2.58;;;;;;;;;;5032218;28;20224;-80
2022/06/27 02:49:18;;;;;;;2.22;2.13;;;;;;;;;;5036899;28;20669;-81
2022/06/27 02:51:50;;;;;;;3.30;3.05;;;;;;;;;;5030630;28;20214;-79
2022/06/27 02:54:20;;;;;;;3.40;3.15;;;;;;;;;;5033764;28;20255;-79
2022/06/27 02:56:48;;;;;;;2.30;2.10;;;;;;;;;;5024340;28;20203;-78
2022/06/27 02:59:18;;;;;;;2.95;2.50;;;;;;;;;;5029703;28;20232;-78
2022/06/27 03:01:45;;;;;;;5.20;3.00;;;;;;;;;;5024588;28;20219;-79
2022/06/27 03:04:12;;;;;;;2.47;1.92;;;;;;;;;;5024710;28;20495;-80
2022/06/27 03:06:40;;;;;;;2.80;2.60;;;;;;;;;;5034293;28;20225;-79
2022/06/27 03:09:08;;;;;;;9.02;2.50;;;;;;;;;;5034252;28;20205;-79
2022/06/27 03:11:35;;;;;;;2.40;2.20;;;;;;;;;;5027212;28;20230;-79
2022/06/27 03:14:02;;;;;;;3.58;2.60;;;;;;;;;;5033641;28;20653;-78
2022/06/27 03:16:29;;;;;;;3.08;2.78;;;;;;;;;;5025692;28;20253;-79
2022/06/27 03:18:57;;;;;;;2.65;2.20;;;;;;;;;;5033549;28;21395;-79
2022/06/27 03:21:24;;;;;;;2.92;2.55;;;;;;;;;;5033348;28;20697;-79
2022/06/27 03:23:52;;;;;;;1.90;1.80;;;;;;;;;;5028204;28;20219;-79
2022/06/27 03:26:19;;;;;;;4.10;2.85;;;;;;;;;;5031589;28;20218;-79
2022/06/27 03:28:46;;;;;;;2.67;2.35;;;;;;;;;;5033879;28;20239;-79
2022/06/27 03:31:13;;;;;;;2.83;2.60;;;;;;;;;;5038910;28;20212;-80
2022/06/27 03:33:40;;;;;;;2.80;2.50;;;;;;;;;;5042932;28;20565;-79
2022/06/27 03:36:08;;;;;;;2.75;2.55;;;;;;;;;;5047023;28;20206;-79
2022/06/27 03:38:35;;;;;;;2.55;2.10;;;;;;;;;;5033128;28;20202;-80
2022/06/27 03:41:03;;;;;;;2.20;2.00;;;;;;;;;;5032078;28;20319;-79
2022/06/27 03:43:30;;;;;;;3.08;2.40;;;;;;;;;;5032562;28;20208;-79
2022/06/27 03:45:58;;;;;;;2.67;2.47;;;;;;;;;;5031001;28;20234;-80
2022/06/27 03:51:10;;;;;;;2.10;2.00;;;;;;;;;;5038026;28;20211;-80
2022/06/27 03:53:37;;;;;;;3.45;3.25;;;;;;;;;;5033475;28;20206;-80
2022/06/27 03:56:06;;;;;;;2.50;2.30;;;;;;;;;;5027956;28;20206;-79
2022/06/27 03:58:33;;;;;;;2.80;2.60;;;;;;;;;;5029654;28;20267;-80
2022/06/27 04:01:01;;;;;;;3.85;2.53;;;;;;;;;;5026195;28;20209;-78
2022/06/27 04:03:28;;;;;;;2.60;2.40;;;;;;;;;;5033775;28;20230;-79
2022/06/27 04:05:55;;;;;;;1.95;1.85;;;;;;;;;;5039576;28;20220;-79
2022/06/27 04:08:22;;;;;;;4.32;2.20;;;;;;;;;;5035707;28;20681;-79
2022/06/27 04:10:49;;;;;;;2.30;2.10;;;;;;;;;;5034739;28;20222;-79
2022/06/27 04:13:18;;;;;;;2.63;2.42;;;;;;;;;;5038236;28;20258;-77
2022/06/27 04:15:45;;;;;;;2.15;2.00;;;;;;;;;;5032124;28;20602;-78
2022/06/27 04:18:12;;;;;;;3.45;2.55;;;;;;;;;;5038644;28;20204;-79
2022/06/27 04:20:39;;;;;;;4.38;3.00;;;;;;;;;;5042190;28;20196;-80
2022/06/27 04:23:06;;;;;;;2.30;2.10;;;;;;;;;;5030923;28;20208;-78
2022/06/27 04:25:33;;;;;;;2.97;2.67;;;;;;;;;;5036871;28;20205;-79
2022/06/27 04:28:00;;;;;;;2.80;2.20;;;;;;;;;;5034880;28;20205;-78
2022/06/27 04:30:29;;;;;;;3.17;2.90;;;;;;;;;;5038743;28;20631;-78
2022/06/27 04:32:57;;;;;;;2.85;2.55;;;;;;;;;;5029187;28;20715;-78
2022/06/27 04:35:25;;;;;;;3.13;2.83;;;;;;;;;;5033960;28;20648;-78
2022/06/27 04:37:53;;;;;;;2.33;2.08;;;;;;;;;;5029289;28;20323;-78
2022/06/27 04:40:20;;;;;;;3.72;2.63;;;;;;;;;;5032092;28;20296;-78
2022/06/27 04:42:49;;;;;;;2.50;2.30;;;;;;;;;;5030969;28;20260;-78
2022/06/27 04:45:16;;;;;;;2.92;2.15;;;;;;;;;;5029715;28;20233;-77
2022/06/27 04:47:44;;;;;;;2.55;2.35;;;;;;;;;;5029211;28;20214;-78
2022/06/27 04:50:12;;;;;;;3.72;3.13;;;;;;;;;;5031977;28;20197;-78
2022/06/27 04:52:40;;;;;;;3.00;2.70;;;;;;;;;;5030472;28;20574;-78
2022/06/27 04:55:08;;;;;;;2.22;2.03;;;;;;;;;;5031386;28;20198;-83
2022/06/27 04:57:36;;;;;;;2.33;2.15;;;;;;;;;;5028309;28;20197;-85
2022/06/27 05:00:04;;;;;;;3.47;2.38;;;;;;;;;;5019606;28;20202;-84
2022/06/27 05:02:31;;;;;;;1.80;1.70;;;;;;;;;;5030595;28;20229;-83
2022/06/27 05:05:00;;;;;;;2.72;2.53;;;;;;;;;;5028555;28;22046;-84
2022/06/27 05:07:29;;;;;;;2.37;2.00;;;;;;;;;;5028346;28;20230;-84
2022/06/27 05:09:56;;;;;;;2.35;2.15;;;;;;;;;;5030564;28;20465;-84
2022/06/27 05:12:23;;;;;;;3.75;2.10;;;;;;;;;;5026332;28;20204;-84
2022/06/27 05:14:50;;;;;;;2.88;2.67;;;;;;;;;;5028822;28;20212;-84
2022/06/27 05:17:18;;;;;;;2.72;2.30;;;;;;;;;;5024933;28;20193;-84
2022/06/27 05:19:45;;;;;;;3.70;2.35;;;;;;;;;;5021286;28;20207;-84
2022/06/27 05:22:14;;;;;;;3.50;2.20;;;;;;;;;;5026796;28;20731;-85
2022/06/27 05:24:41;;;;;;;4.75;4.45;;;;;;;;;;5027185;28;20221;-83
2022/06/27 05:27:09;;;;;;;4.63;4.18;;;;;;;;;;5027903;28;20367;-85
2022/06/27 05:29:36;;;;;;;3.60;3.30;;;;;;;;;;5029217;28;20207;-84
2022/06/27 05:32:03;;;;;;;3.00;2.80;;;;;;;;;;5019916;28;20200;-85
2022/06/27 05:34:31;;;;;;;3.13;2.92;;;;;;;;;;5028261;28;20591;-84
2022/06/27 05:36:58;;;;;;;3.35;3.15;;;;;;;;;;5026493;28;20196;-85
2022/06/27 05:39:27;;;;;;;4.85;3.75;;;;;;;;;;5028949;28;20202;-84
2022/06/27 05:41:54;;;;;;;4.35;3.97;;;;;;;;;;5027401;28;20207;-84
2022/06/27 05:44:21;;;;;;;4.07;3.78;;;;;;;;;;5027848;28;20206;-86
2022/06/27 05:46:48;;;;;;;4.82;4.43;;;;;;;;;;5020666;28;20313;-85
2022/06/27 05:49:16;;;;;;;5.43;4.93;;;;;;;;;;5027037;28;20232;-84
2022/06/27 05:51:44;;;;;;;5.65;5.15;;;;;;;;;;5024895;28;20207;-84
2022/06/27 05:54:12;;;;;;;4.10;3.80;;;;;;;;;;5032016;28;20219;-85
2022/06/27 05:56:40;;;;;;;3.75;3.45;;;;;;;;;;5026386;28;20200;-85
2022/06/27 05:59:08;;;;;;;4.30;3.90;;;;;;;;;;5027033;28;20210;-83
2022/06/27 06:01:36;;;;;;;3.40;3.20;;;;;;;;;;5024057;28;20239;-83
2022/06/27 06:04:03;;;;;;;3.83;3.53;;;;;;;;;;5019764;28;20205;-85
2022/06/27 06:06:31;;;;;;;3.08;2.75;;;;;;;;;;5025811;28;20236;-84
2022/06/27 06:08:59;;;;;;;5.43;3.33;;;;;;;;;;5020307;28;20197;-84
2022/06/27 06:11:27;;;;;;;5.22;4.75;;;;;;;;;;5027045;28;20296;-87
2022/06/27 06:13:55;;;;;;;5.40;3.47;;;;;;;;;;5020255;28;20196;-85
2022/06/27 06:16:23;;;;;;;4.88;4.38;;;;;;;;;;5020061;28;20212;-84
2022/06/27 06:18:53;;;;;;;5.53;5.13;;;;;;;;;;5023895;28;20209;-85
2022/06/27 06:21:20;;;;;;;5.38;4.97;;;;;;;;;;5024434;28;20675;-84
2022/06/27 06:23:49;;;;;;;6.10;5.60;;;;;;;;;;5023006;28;20270;-84
2022/06/27 06:26:16;;;;;;;6.75;6.22;;;;;;;;;;5026478;28;20212;-82
2022/06/27 06:28:44;;;;;;;5.07;4.57;;;;;;;;;;5026874;28;20315;-82
2022/06/27 06:31:14;;;;;;;7.88;7.18;;;;;;;;;;5024490;28;20211;-84
2022/06/27 06:33:42;;;;;;;7.45;6.85;;;;;;;;;;5021577;28;20753;-84
2022/06/27 06:36:09;;;;;;;8.43;7.57;;;;;;;;;;5027800;28;20235;-82
2022/06/27 06:38:38;;;;;;;6.70;6.20;;;;;;;;;;5031935;28;20238;-83
2022/06/27 06:41:05;;;;;;;6.47;5.88;;;;;;;;;;5031011;28;20936;-83
2022/06/27 06:43:32;;;;;;;8.38;5.72;;;;;;;;;;5025700;28;20560;-83
2022/06/27 06:46:00;;;;;;;5.15;4.65;;;;;;;;;;5026088;28;20667;-82
2022/06/27 06:48:28;;;;;;;6.32;5.75;;;;;;;;;;5030501;28;20216;-82
2022/06/27 06:50:55;;;;;;;5.75;5.32;;;;;;;;;;5023581;28;20207;-83
2022/06/27 06:53:22;;;;;;;5.43;4.93;;;;;;;;;;5024912;28;20635;-81
2022/06/27 06:55:50;;;;;;;7.00;6.32;;;;;;;;;;5019018;28;20235;-82
2022/06/27 06:58:18;;;;;;;7.38;5.50;;;;;;;;;;5028115;28;20205;-82
2022/06/27 07:00:45;;;;;;;5.88;5.25;;;;;;;;;;5023294;28;20196;-81
2022/06/27 07:03:12;;;;;;;8.27;5.10;;;;;;;;;;5026469;28;20226;-81
2022/06/27 07:05:40;;;;;;;5.93;4.93;;;;;;;;;;5028480;28;20201;-80
2022/06/27 07:08:09;;;;;;;6.32;5.30;;;;;;;;;;5026579;28;20232;-79
2022/06/27 07:10:36;;;;;;;7.55;6.10;;;;;;;;;;5033048;28;20285;-80
2022/06/27 07:13:03;;;;;;;5.80;5.20;;;;;;;;;;5027071;28;20203;-80
2022/06/27 07:15:33;;;;;;;5.63;5.13;;;;;;;;;;5029887;28;20216;-80
2022/06/27 07:18:02;;;;;;;7.53;6.35;;;;;;;;;;5027868;28;20219;-81
2022/06/27 07:20:30;;;;;;;5.72;5.32;;;;;;;;;;5029923;28;20199;-81
2022/06/27 07:22:59;;;;;;;7.07;6.47;;;;;;;;;;5025996;28;20237;-80
2022/06/27 07:25:27;;;;;;;7.30;6.60;;;;;;;;;;5028425;28;20649;-80
2022/06/27 07:27:55;;;;;;;6.93;6.30;;;;;;;;;;5025249;28;20239;-80
2022/06/27 07:30:22;;;;;;;8.65;7.85;;;;;;;;;;5023626;28;20729;-80
2022/06/27 07:32:49;;;;;;;5.43;4.65;;;;;;;;;;5029882;28;20590;-80
2022/06/27 07:35:17;;;;;;;8.13;7.32;;;;;;;;;;5028169;28;20202;-80
2022/06/27 07:37:48;;;;;;;7.10;6.55;;;;;;;;;;5023482;28;20615;-80
2022/06/27 07:40:17;;;;;;;9.65;8.75;;;;;;;;;;5016851;28;20487;-79
2022/06/27 07:42:44;;;;;;;6.63;5.93;;;;;;;;;;5029447;28;20598;-80
2022/06/27 07:45:13;;;;;;;5.57;5.07;;;;;;;;;;5026072;28;20607;-80
2022/06/27 07:47:42;;;;;;;6.15;5.65;;;;;;;;;;5019416;28;20249;-80
2022/06/27 07:50:10;;;;;;;4.57;4.20;;;;;;;;;;5030217;28;20204;-80
2022/06/27 07:55:19;;;;;;;6.25;5.38;;;;;;;;;;5021889;28;20220;-79
2022/06/27 07:57:47;;;;;;;7.07;6.53;;;;;;;;;;5027170;28;20202;-80
2022/06/27 08:00:15;;;;;;;8.00;7.18;;;;;;;;;;5029952;28;20712;-81
2022/06/27 08:02:42;;;;;;;5.97;5.47;;;;;;;;;;5028141;28;20240;-82
2022/06/27 08:05:10;;;;;;;6.53;5.93;;;;;;;;;;5022923;28;20673;-81
2022/06/27 08:07:37;;;;;;;6.68;6.07;;;;;;;;;;5026831;28;20670;-79
2022/06/27 08:10:05;;;;;;;6.88;6.28;;;;;;;;;;5029919;28;20578;-79
2022/06/27 08:12:34;;;;;;;7.53;6.72;;;;;;;;;;5029260;28;20200;-82
2022/06/27 08:15:01;;;;;;;6.38;5.78;;;;;;;;;;5025585;28;20666;-82
2022/06/27 08:17:29;;;;;;;6.32;5.72;;;;;;;;;;5027188;28;20255;-82
2022/06/27 08:19:57;;;;;;;6.25;5.65;;;;;;;;;;5028204;28;20383;-82
2022/06/27 08:22:25;;;;;;;5.85;5.35;;;;;;;;;;5026529;28;20620;-83
2022/06/27 08:24:52;;;;;;;4.68;4.15;;;;;;;;;;5010055;28;20884;-82
2022/06/27 08:27:20;;;;;;;4.22;3.85;;;;;;;;;;5029440;28;20225;-83
2022/06/27 08:29:48;;;;;;;4.20;3.90;;;;;;;;;;5025323;28;20692;-82
2022/06/27 08:32:15;;;;;;;4.78;4.38;;;;;;;;;;5027753;28;20202;-82
2022/06/27 08:34:47;;;;;;;4.60;4.20;;;;;;;;;;5026050;28;20205;-79
2022/06/27 08:37:14;;;;;;;4.88;4.38;;;;;;;;;;5028984;28;20208;-79
2022/06/27 08:39:41;;;;;;;6.35;5.40;;;;;;;;;;5028810;28;20199;-79
2022/06/27 08:42:09;;;;;;;4.70;4.18;;;;;;;;;;5030139;28;20706;-77
2022/06/27 08:44:39;;;;;;;5.25;4.85;;;;;;;;;;5033137;28;20207;-80
2022/06/27 08:47:07;;;;;;;6.30;5.70;;;;;;;;;;5029176;28;20221;-80
2022/06/27 08:49:35;;;;;;;5.05;4.65;;;;;;;;;;5024154;28;20204;-80
2022/06/27 08:52:03;;;;;;;4.80;4.40;;;;;;;;;;5020601;28;20204;-80
2022/06/27 08:54:31;;;;;;;4.97;4.53;;;;;;;;;;5028922;28;20210;-80
2022/06/27 08:56:58;;;;;;;5.13;4.63;;;;;;;;;;5027062;28;20193;-80
2022/06/27 08:59:26;;;;;;;5.20;4.70;;;;;;;;;;5025985;28;20208;-80
2022/06/27 09:01:53;;;;;;;4.60;4.20;;;;;;;;;;5025818;28;20746;-80
2022/06/27 09:04:21;;;;;;;3.92;3.53;;;;;;;;;;5029602;28;20250;-77
2022/06/27 09:06:56;;;;;;;6.10;4.40;;;;;;;;;;5029231;28;20207;-80
2022/06/27 09:09:24;;;;;;;3.92;3.63;;;;;;;;;;5029478;28;20219;-82
2022/06/27 09:11:52;;;;;;;4.72;4.32;;;;;;;;;;5029792;28;20282;-83
2022/06/27 09:14:34;;;;;;;4.85;4.45;;;;;;;;;;5028621;28;20228;-82
2022/06/27 09:17:04;;;;;;;4.80;4.43;;;;;;;;;;5027903;28;20201;-82
2022/06/27 09:19:50;;;;;;;5.32;4.60;;;;;;;;;;5023057;28;20734;-83
2022/06/27 09:22:19;;;;;;;4.80;4.30;;;;;;;;;;5020366;28;20229;-83
2022/06/27 09:24:58;;;;;;;5.30;4.80;;;;;;;;;;5026863;28;20200;-81
2022/06/27 09:27:41;;;;;;;4.50;4.10;;;;;;;;;;5026189;28;20244;-81
2022/06/27 09:30:26;;;;;;;5.05;4.50;;;;;;;;;;5027136;28;20203;-82
2022/06/27 09:32:53;;;;;;;4.75;4.45;;;;;;;;;;5029444;28;20196;-83
2022/06/27 09:35:27;;;;;;;4.95;4.55;;;;;;;;;;5030828;28;20579;-83
2022/06/27 09:37:54;;;;;;;8.00;7.30;;;;;;;;;;5029344;28;20214;-84
2022/06/27 09:40:24;;;;;;;5.32;4.82;;;;;;;;;;5030951;28;20194;-81
2022/06/27 09:42:53;;;;;;;6.18;5.68;;;;;;;;;;5028105;28;20280;-81
2022/06/27 09:45:22;;;;;;;8.18;7.38;;;;;;;;;;5028361;28;20200;-82
2022/06/27 09:47:49;;;;;;;9.02;8.23;;;;;;;;;;5028442;28;20252;-82
2022/06/27 09:50:16;;;;;;;7.03;6.15;;;;;;;;;;5030508;28;20674;-82
2022/06/27 09:52:45;;;;;;;7.45;6.75;;;;;;;;;;5031394;28;20207;-82
2022/06/27 09:55:14;;;;;;;11.18;8.68;;;;;;;;;;5033486;28;20212;-82
2022/06/27 09:57:41;;;;;;;7.25;6.50;;;;;;;;;;5031274;28;20266;-81
2022/06/27 10:00:11;;;;;;;9.68;8.18;;;;;;;;;;5029514;28;20328;-82
2022/06/27 10:02:38;;;;;;;8.00;7.20;;;;;;;;;;5028502;28;20233;-82
2022/06/27 10:05:10;;;;;;;8.82;7.93;;;;;;;;;;5026617;28;20200;-82
2022/06/27 10:07:38;;;;;;;9.88;8.85;;;;;;;;;;5019066;28;20213;-81
2022/06/27 10:10:09;;;;;;;8.85;6.95;;;;;;;;;;5025749;28;20211;-82
2022/06/27 10:12:38;;;;;;;8.73;8.00;;;;;;;;;;5023993;28;20260;-81
2022/06/27 10:15:23;;;;;;;9.32;8.43;;;;;;;;;;5028036;28;20214;-81
2022/06/27 10:17:51;;;;;;;8.38;7.57;;;;;;;;;;5027393;28;20199;-82
2022/06/27 10:20:20;;;;;;;8.57;7.82;;;;;;;;;;5026028;28;20204;-81
2022/06/27 10:22:48;;;;;;;6.95;6.30;;;;;;;;;;5024739;28;20204;-81
2022/06/27 10:25:34;;;;;;;7.90;6.60;;;;;;;;;;5024996;28;20212;-81
2022/06/27 10:30:57;;;;;;;7.80;7.10;;;;;;;;;;5066452;28;20948;-81
2022/06/27 10:33:37;;;;;;;7.43;6.82;;;;;;;;;;5060569;28;20203;-81
2022/06/27 10:36:13;;;;;;;6.80;6.20;;;;;;;;;;5055560;28;20570;-81
2022/06/27 10:38:50;;;;;;;6.75;6.15;;;;;;;;;;5055724;28;20620;-81
2022/06/27 10:41:36;;;;;;;7.45;6.85;;;;;;;;;;5065538;28;20195;-80
2022/06/27 10:44:03;;;;;;;7.05;6.45;;;;;;;;;;5068329;28;20193;-82
2022/06/27 10:46:44;;;;;;;8.23;7.00;;;;;;;;;;5055484;28;20286;-81
2022/06/27 10:49:21;;;;;;;6.18;5.60;;;;;;;;;;5054524;28;20242;-78
2022/06/27 10:51:48;;;;;;;6.90;6.30;;;;;;;;;;5057068;28;20198;-80
2022/06/27 10:54:16;;;;;;;6.45;5.95;;;;;;;;;;5066582;28;20201;-79
2022/06/27 10:56:44;;;;;;;5.93;5.43;;;;;;;;;;5068371;28;20338;-79
2022/06/27 10:59:27;;;;;;;6.72;6.10;;;;;;;;;;5069795;28;20672;-79
2022/06/27 11:02:09;;;;;;;6.65;6.15;;;;;;;;;;5068391;28;20236;-79
2022/06/27 11:04:38;;;;;;;6.13;5.57;;;;;;;;;;5063110;28;20263;-80
2022/06/27 11:07:05;;;;;;;8.40;6.38;;;;;;;;;;5054817;28;20647;-79
2022/06/27 11:09:35;;;;;;;6.63;6.03;;;;;;;;;;5072071;28;20210;-79
2022/06/27 11:12:03;;;;;;;5.38;4.97;;;;;;;;;;5060081;28;20212;-79
2022/06/27 11:14:30;;;;;;;6.55;5.95;;;;;;;;;;5063393;28;20484;-79
2022/06/27 11:16:57;;;;;;;5.20;4.80;;;;;;;;;;5056913;28;20204;-83
2022/06/27 11:22:21;;;;;;;5.28;4.88;;;;;;;;;;5055591;28;20213;-79
2022/06/27 11:24:49;;;;;;;6.07;5.65;;;;;;;;;;5063881;28;20422;-80
2022/06/27 11:27:16;;;;;;;5.72;5.22;;;;;;;;;;5059955;28;20259;-81
2022/06/27 11:32:35;;;;;;;5.93;5.43;;;;;;;;;;5059781;28;20770;-78
2022/06/27 11:35:02;;;;;;;6.00;5.25;;;;;;;;;;5057307;28;20232;-78
2022/06/27 11:37:32;;;;;;;5.53;5.13;;;;;;;;;;5055747;28;20203;-78
2022/06/27 11:40:00;;;;;;;5.90;5.40;;;;;;;;;;5070657;28;20627;-79
2022/06/27 11:42:29;;;;;;;5.18;4.68;;;;;;;;;;5049852;28;20202;-79
2022/06/27 11:45:06;;;;;;;5.35;4.95;;;;;;;;;;5056174;28;20684;-79
2022/06/27 11:47:35;;;;;;;6.32;5.82;;;;;;;;;;5050157;28;20188;-80
2022/06/27 11:50:02;;;;;;;5.35;4.95;;;;;;;;;;5060272;28;20867;-80
2022/06/27 11:52:37;;;;;;;5.95;5.45;;;;;;;;;;5048755;28;20199;-79
2022/06/27 11:55:08;;;;;;;5.40;5.00;;;;;;;;;;5042710;28;20672;-80
2022/06/27 11:57:36;;;;;;;5.57;5.18;;;;;;;;;;5045376;28;20209;-80
2022/06/27 12:00:06;;;;;;;5.57;5.13;;;;;;;;;;5050139;28;20645;-79
2022/06/27 12:02:34;;;;;;;5.60;5.03;;;;;;;;;;5066302;28;20677;-81
2022/06/27 12:05:05;;;;;;;5.93;5.43;;;;;;;;;;5046977;28;20657;-79
2022/06/27 12:07:32;;;;;;;5.45;4.95;;;;;;;;;;5048339;28;20198;-80
2022/06/27 12:10:01;;;;;;;5.20;4.80;;;;;;;;;;5049817;28;20684;-79
2022/06/27 12:12:29;;;;;;;5.70;5.28;;;;;;;;;;5045335;28;20199;-80
2022/06/27 12:14:57;;;;;;;5.40;5.00;;;;;;;;;;5054388;28;20252;-79
2022/06/27 12:17:24;;;;;;;5.82;5.43;;;;;;;;;;5049081;28;20452;-79
2022/06/27 12:20:01;;;;;;;5.57;5.07;;;;;;;;;;5052184;28;20202;-81
2022/06/27 12:22:28;;;;;;;5.40;5.00;;;;;;;;;;5053723;28;20212;-80
2022/06/27 12:24:55;;;;;;;4.90;4.40;;;;;;;;;;5046871;28;20470;-80
2022/06/27 12:27:24;;;;;;;4.75;4.35;;;;;;;;;;5037783;28;20209;-79
2022/06/27 12:29:51;;;;;;;6.05;5.45;;;;;;;;;;5054077;28;20321;-80
2022/06/27 12:32:18;;;;;;;6.00;5.50;;;;;;;;;;5043423;28;20201;-78
2022/06/27 12:34:46;;;;;;;5.82;5.32;;;;;;;;;;5050503;28;20217;-81
2022/06/27 12:37:13;;;;;;;4.82;4.43;;;;;;;;;;5047915;28;20326;-78
2022/06/27 12:39:40;;;;;;;5.18;4.78;;;;;;;;;;5043027;28;20195;-79
2022/06/27 12:42:08;;;;;;;5.15;4.75;;;;;;;;;;5042889;28;20202;-81
2022/06/27 12:44:36;;;;;;;5.70;5.30;;;;;;;;;;5045950;28;20210;-79
2022/06/27 12:47:04;;;;;;;5.93;5.43;;;;;;;;;;5043338;28;20203;-80
2022/06/27 12:49:31;;;;;;;4.57;4.28;;;;;;;;;;5050191;28;20230;-78
2022/06/27 12:51:58;;;;;;;5.63;5.07;;;;;;;;;;5041617;28;20199;-79
2022/06/27 12:54:25;;;;;;;6.20;4.97;;;;;;;;;;5044870;28;20638;-79
2022/06/27 12:56:52;;;;;;;5.70;5.30;;;;;;;;;;5047133;28;20210;-78
2022/06/27 12:59:20;;;;;;;4.93;4.53;;;;;;;;;;5044955;28;20199;-77
2022/06/27 13:01:49;;;;;;;4.60;4.20;;;;;;;;;;5046235;28;20700;-80
2022/06/27 13:04:16;;;;;;;4.70;4.30;;;;;;;;;;5047333;28;21035;-79
2022/06/27 13:06:43;;;;;;;5.43;5.03;;;;;;;;;;5044483;28;20231;-80
2022/06/27 13:09:10;;;;;;;5.03;4.63;;;;;;;;;;5033974;28;20203;-79
2022/06/27 13:11:37;;;;;;;4.65;4.35;;;;;;;;;;5041852;28;20594;-80
2022/06/27 13:14:04;;;;;;;5.53;5.03;;;;;;;;;;5059124;28;20561;-78
2022/06/27 13:16:31;;;;;;;4.85;4.45;;;;;;;;;;5046040;28;20474;-78
2022/06/27 13:18:59;;;;;;;5.15;4.75;;;;;;;;;;5050056;28;20195;-78
2022/06/27 13:21:26;;;;;;;5.20;4.80;;;;;;;;;;5053750;28;20202;-78
2022/06/27 13:23:54;;;;;;;4.25;3.90;;;;;;;;;;5056418;28;20684;-77
2022/06/27 13:26:21;;;;;;;5.20;4.80;;;;;;;;;;5041610;28;20200;-78
2022/06/27 13:28:48;;;;;;;4.47;4.10;;;;;;;;;;5051134;28;20470;-78
2022/06/27 13:31:15;;;;;;;4.60;4.30;;;;;;;;;;5049504;28;20222;-79
2022/06/27 13:33:42;;;;;;;4.73;4.33;;;;;;;;;;5042244;28;20677;-77
2022/06/27 13:36:10;;;;;;;4.80;4.40;;;;;;;;;;5046950;28;20461;-78
2022/06/27 13:38:37;;;;;;;4.73;4.33;;;;;;;;;;5048204;28;20465;-76
2022/06/27 13:41:04;;;;;;;5.40;4.90;;;;;;;;;;5046989;28;20463;-79
2022/06/27 13:43:31;;;;;;;5.22;4.82;;;;;;;;;;5051260;28;20218;-77
2022/06/27 13:45:58;;;;;;;5.57;5.18;;;;;;;;;;5047933;28;20210;-79
2022/06/27 13:48:25;;;;;;;4.80;4.40;;;;;;;;;;5050620;28;20573;-77
2022/06/27 13:50:53;;;;;;;4.20;3.90;;;;;;;;;;5044472;28;20219;-79
2022/06/27 13:53:21;;;;;;;4.90;4.50;;;;;;;;;;5038544;28;20457;-77
2022/06/27 13:55:48;;;;;;;5.05;4.65;;;;;;;;;;5048921;28;20460;-78
2022/06/27 13:58:15;;;;;;;5.27;4.87;;;;;;;;;;5057113;28;20190;-79
2022/06/27 14:00:43;;;;;;;5.72;4.97;;;;;;;;;;5043085;28;20797;-78
2022/06/27 14:03:12;;;;;;;4.93;4.53;;;;;;;;;;5045910;28;20211;-78
2022/06/27 14:05:39;;;;;;;4.40;4.10;;;;;;;;;;5047553;28;20449;-78
2022/06/27 14:08:06;;;;;;;3.47;3.27;;;;;;;;;;5033316;28;20520;-78
2022/06/27 14:10:54;;;;;;;4.50;4.20;;;;;;;;;;5046813;28;20481;-77
2022/06/27 14:13:21;;;;;;;4.80;4.50;;;;;;;;;;5046985;28;20194;-77
2022/06/27 14:15:48;;;;;;;5.38;4.00;;;;;;;;;;5042353;28;20544;-78
2022/06/27 14:18:15;;;;;;;3.80;3.60;;;;;;;;;;5038292;28;20221;-79
2022/06/27 14:20:42;;;;;;;4.53;4.22;;;;;;;;;;5041679;28;20842;-78
2022/06/27 14:23:10;;;;;;;3.83;3.53;;;;;;;;;;5059060;28;20190;-79
2022/06/27 14:25:38;;;;;;;4.10;3.90;;;;;;;;;;5049980;28;20960;-78
2022/06/27 14:28:05;;;;;;;3.83;3.53;;;;;;;;;;5047944;28;20187;-80
2022/06/27 14:30:33;;;;;;;4.33;4.00;;;;;;;;;;5044269;28;20231;-78
2022/06/27 14:33:00;;;;;;;3.70;3.38;;;;;;;;;;5049725;28;20467;-77
2022/06/27 14:35:27;;;;;;;4.43;4.13;;;;;;;;;;5058572;28;20202;-78
2022/06/27 14:37:54;;;;;;;3.93;3.63;;;;;;;;;;5047955;28;20199;-78
2022/06/27 14:40:21;;;;;;;4.28;3.80;;;;;;;;;;5034649;28;20478;-78
2022/06/27 14:42:49;;;;;;;4.10;3.80;;;;;;;;;;5055966;28;20207;-79
2022/06/27 14:45:17;;;;;;;3.23;3.03;;;;;;;;;;5047335;28;20202;-79
2022/06/27 14:47:44;;;;;;;3.80;3.50;;;;;;;;;;5045121;28;20445;-78
2022/06/27 14:50:11;;;;;;;4.23;3.83;;;;;;;;;;5052111;28;20840;-78
2022/06/27 14:52:38;;;;;;;4.10;3.70;;;;;;;;;;5053216;28;20472;-80
2022/06/27 14:55:05;;;;;;;3.47;3.20;;;;;;;;;;5052890;28;20457;-78
2022/06/27 14:57:32;;;;;;;3.63;3.33;;;;;;;;;;5045558;28;20446;-78
2022/06/27 15:00:01;;;;;;;3.73;3.40;;;;;;;;;;5055023;28;20470;-78
2022/06/27 15:02:28;;;;;;;3.87;3.57;;;;;;;;;;5048428;28;20978;-80
2022/06/27 15:04:57;;;;;;;3.23;3.03;;;;;;;;;;5050620;28;20444;-79